createdAt,value
2024-03-03T00:00:29.617Z,100516.59
2024-03-03T00:02:01.060Z,100520.94
2024-03-03T00:03:36.378Z,100520.94
2024-03-03T00:05:08.657Z,100520.06
2024-03-03T00:06:40.156Z,100522.50
2024-03-03T00:08:11.548Z,100516.59
2024-03-03T00:09:43.003Z,100522.44
2024-03-03T00:11:14.649Z,100521.28
2024-03-03T00:12:46.084Z,100521.13
2024-03-03T00:14:17.589Z,100521.13
2024-03-03T00:15:49.597Z,100524.47
2024-03-03T00:17:21.020Z,100520.78
2024-03-03T00:18:52.421Z,100522.97
2024-03-03T00:20:23.820Z,100520.00
2024-03-03T00:21:55.366Z,100520.44
2024-03-03T00:23:26.789Z,100526.28
2024-03-03T00:24:58.285Z,100523.41
2024-03-03T00:26:32.124Z,100526.19
2024-03-03T00:28:03.644Z,100522.34
2024-03-03T00:29:35.138Z,100524.41
2024-03-03T00:31:06.642Z,100525.69
2024-03-03T00:32:38.061Z,100520.03
2024-03-03T00:34:09.500Z,100519.47
2024-03-03T00:35:41.006Z,100522.41
2024-03-03T00:37:13.243Z,100526.16
2024-03-03T00:38:44.643Z,100520.72
2024-03-03T00:40:17.129Z,100526.19
2024-03-03T00:41:48.589Z,100526.78
2024-03-03T00:43:20.084Z,100524.75
2024-03-03T00:44:51.477Z,100525.06
2024-03-03T00:46:23.065Z,100527.19
2024-03-03T00:47:54.562Z,100525.19
2024-03-03T00:49:26.165Z,100522.16
2024-03-03T00:50:57.610Z,100522.88
2024-03-03T00:52:29.453Z,100520.13
2024-03-03T00:54:01.123Z,100523.34
2024-03-03T00:55:32.596Z,100524.69
2024-03-03T00:57:05.072Z,100523.59
2024-03-03T00:58:37.047Z,100520.78
2024-03-03T01:00:10.127Z,100519.81
2024-03-03T01:01:41.563Z,100523.72
2024-03-03T01:03:13.159Z,100515.75
2024-03-03T01:04:44.690Z,100521.56
2024-03-03T01:06:16.075Z,100519.81
2024-03-03T01:07:47.539Z,100516.22
2024-03-03T01:09:19.288Z,100516.41
2024-03-03T01:10:50.728Z,100513.38
2024-03-03T01:12:22.260Z,100509.50
2024-03-03T01:13:53.823Z,100511.22
2024-03-03T01:15:25.359Z,100511.22
2024-03-03T01:16:56.788Z,100516.81
2024-03-03T01:18:29.618Z,100510.50
2024-03-03T01:20:01.422Z,100508.53
2024-03-03T01:21:33.736Z,100513.59
2024-03-03T01:23:06.154Z,100505.53
2024-03-03T01:24:38.566Z,100510.69
2024-03-03T01:26:10.129Z,100510.84
2024-03-03T01:27:41.551Z,100509.81
2024-03-03T01:29:12.997Z,100506.00
2024-03-03T01:30:44.559Z,100502.97
2024-03-03T01:32:15.993Z,100508.41
2024-03-03T01:33:47.420Z,100505.38
2024-03-03T01:35:18.963Z,100500.72
2024-03-03T01:36:50.415Z,100509.16
2024-03-03T01:38:21.921Z,100505.31
2024-03-03T01:39:54.505Z,100502.50
2024-03-03T01:41:26.062Z,100502.69
2024-03-03T01:42:58.006Z,100502.94
2024-03-03T01:44:29.477Z,100503.66
2024-03-03T01:46:00.990Z,100504.13
2024-03-03T01:47:33.003Z,100504.50
2024-03-03T01:49:05.545Z,100498.94
2024-03-03T01:50:38.333Z,100500.59
2024-03-03T01:52:12.395Z,100497.75
2024-03-03T01:53:51.851Z,100504.31
2024-03-03T01:55:24.369Z,100503.91
2024-03-03T01:56:56.737Z,100499.19
2024-03-03T01:58:30.187Z,100491.84
2024-03-03T02:00:05.656Z,100491.75
2024-03-03T02:01:38.381Z,100490.19
2024-03-03T02:03:10.599Z,100487.66
2024-03-03T02:04:42.688Z,100481.22
2024-03-03T02:06:18.308Z,100487.34
2024-03-03T02:07:50.863Z,100481.75
2024-03-03T02:09:22.774Z,100479.50
2024-03-03T02:10:54.289Z,100476.25
2024-03-03T02:12:26.777Z,100480.72
2024-03-03T02:13:58.863Z,100484.22
2024-03-03T02:15:30.434Z,100479.31
2024-03-03T02:17:02.030Z,100475.97
2024-03-03T02:18:33.449Z,100478.63
2024-03-03T02:20:06.001Z,100474.50
2024-03-03T02:21:37.504Z,100474.59
2024-03-03T02:23:10.855Z,100469.72
2024-03-03T02:24:42.790Z,100473.19
2024-03-03T02:26:14.504Z,100461.47
2024-03-03T02:27:46.193Z,100466.56
2024-03-03T02:29:18.488Z,100465.78
2024-03-03T02:30:51.324Z,100458.25
2024-03-03T02:32:22.871Z,100461.66
2024-03-03T02:33:54.660Z,100455.91
2024-03-03T02:35:26.063Z,100462.69
2024-03-03T02:36:57.753Z,100455.19
2024-03-03T02:38:29.165Z,100462.00
2024-03-03T02:40:00.696Z,100459.47
2024-03-03T02:41:32.366Z,100462.00
2024-03-03T02:43:04.705Z,100461.13
2024-03-03T02:44:36.116Z,100466.28
2024-03-03T02:46:07.756Z,100461.03
2024-03-03T02:47:40.082Z,100462.69
2024-03-03T02:49:11.603Z,100462.69
2024-03-03T02:50:43.168Z,100452.56
2024-03-03T02:52:14.698Z,100458.50
2024-03-03T02:53:46.288Z,100462.69
2024-03-03T02:55:17.734Z,100468.66
2024-03-03T02:56:50.154Z,100461.84
2024-03-03T02:58:21.621Z,100470.22
2024-03-03T02:59:53.353Z,100463.59
2024-03-03T03:01:24.901Z,100472.84
2024-03-03T03:02:56.332Z,100463.59
2024-03-03T03:04:27.794Z,100458.50
2024-03-03T03:05:59.642Z,100461.84
2024-03-03T03:07:31.218Z,100466.03
2024-03-03T03:09:03.132Z,100460.06
2024-03-03T03:10:34.534Z,100462.63
2024-03-03T03:12:06.160Z,100462.63
2024-03-03T03:13:40.285Z,100459.13
2024-03-03T03:15:12.773Z,100457.97
2024-03-03T03:16:44.216Z,100456.97
2024-03-03T03:18:15.784Z,100459.56
2024-03-03T03:19:47.377Z,100457.13
2024-03-03T03:21:20.862Z,100463.25
2024-03-03T03:22:52.238Z,100458.19
2024-03-03T03:24:24.553Z,100460.88
2024-03-03T03:25:56.110Z,100456.78
2024-03-03T03:27:27.548Z,100460.25
2024-03-03T03:28:58.979Z,100453.44
2024-03-03T03:30:30.590Z,100459.31
2024-03-03T03:32:02.146Z,100453.97
2024-03-03T03:33:33.628Z,100448.03
2024-03-03T03:35:05.744Z,100450.66
2024-03-03T03:36:37.372Z,100450.66
2024-03-03T03:38:08.923Z,100447.84
2024-03-03T03:39:41.033Z,100446.97
2024-03-03T03:41:12.769Z,100451.34
2024-03-03T03:42:44.360Z,100453.09
2024-03-03T03:44:19.985Z,100456.56
2024-03-03T03:45:53.500Z,100448.19
2024-03-03T03:47:25.092Z,100451.50
2024-03-03T03:48:56.718Z,100448.97
2024-03-03T03:50:28.912Z,100448.19
2024-03-03T03:52:04.977Z,100452.38
2024-03-03T03:53:36.690Z,100454.66
2024-03-03T03:55:08.763Z,100449.59
2024-03-03T03:56:40.383Z,100449.44
2024-03-03T03:58:12.215Z,100451.88
2024-03-03T03:59:43.622Z,100445.75
2024-03-03T04:01:20.566Z,100446.09
2024-03-03T04:02:52.088Z,100442.84
2024-03-03T04:04:23.538Z,100441.63
2024-03-03T04:05:55.288Z,100443.78
2024-03-03T04:07:26.871Z,100446.78
2024-03-03T04:08:58.371Z,100441.16
2024-03-03T04:10:29.760Z,100449.88
2024-03-03T04:12:01.274Z,100440.34
2024-03-03T04:13:32.810Z,100451.94
2024-03-03T04:15:05.035Z,100449.84
2024-03-03T04:16:36.436Z,100444.41
2024-03-03T04:18:08.037Z,100451.91
2024-03-03T04:19:40.303Z,100442.84
2024-03-03T04:21:11.788Z,100451.41
2024-03-03T04:22:43.199Z,100455.41
2024-03-03T04:24:15.219Z,100443.44
2024-03-03T04:25:46.830Z,100456.66
2024-03-03T04:27:18.265Z,100456.34
2024-03-03T04:28:49.870Z,100443.75
2024-03-03T04:30:21.300Z,100443.75
2024-03-03T04:31:54.636Z,100438.94
2024-03-03T04:33:26.027Z,100444.56
2024-03-03T04:35:01.163Z,100440.16
2024-03-03T04:36:32.560Z,100438.50
2024-03-03T04:38:04.116Z,100448.56
2024-03-03T04:39:36.510Z,100448.66
2024-03-03T04:41:18.539Z,100443.75
2024-03-03T04:42:50.042Z,100443.75
2024-03-03T04:44:21.454Z,100445.16
2024-03-03T04:45:54.681Z,100439.50
2024-03-03T04:47:27.597Z,100443.94
2024-03-03T04:48:59.114Z,100436.44
2024-03-03T04:50:30.578Z,100445.88
2024-03-03T04:52:02.188Z,100447.03
2024-03-03T04:53:34.490Z,100443.03
2024-03-03T04:55:07.044Z,100444.00
2024-03-03T04:56:38.528Z,100443.38
2024-03-03T04:58:09.987Z,100441.88
2024-03-03T04:59:41.539Z,100436.13
2024-03-03T05:01:13.056Z,100429.38
2024-03-03T05:02:44.913Z,100437.06
2024-03-03T05:04:17.290Z,100434.75
2024-03-03T05:05:48.923Z,100434.75
2024-03-03T05:07:20.467Z,100434.75
2024-03-03T05:08:51.902Z,100430.59
2024-03-03T05:10:23.920Z,100434.13
2024-03-03T05:11:55.371Z,100437.69
2024-03-03T05:13:26.807Z,100424.13
2024-03-03T05:14:58.320Z,100436.13
2024-03-03T05:16:30.745Z,100443.81
2024-03-03T05:18:02.186Z,100445.56
2024-03-03T05:19:33.611Z,100440.31
2024-03-03T05:21:05.497Z,100435.09
2024-03-03T05:22:38.098Z,100446.78
2024-03-03T05:24:10.642Z,100442.44
2024-03-03T05:25:42.545Z,100448.09
2024-03-03T05:27:13.928Z,100444.69
2024-03-03T05:28:47.713Z,100446.97
2024-03-03T05:30:19.275Z,100450.00
2024-03-03T05:31:50.881Z,100447.03
2024-03-03T05:33:22.409Z,100445.19
2024-03-03T05:34:53.811Z,100443.88
2024-03-03T05:36:25.196Z,100444.50
2024-03-03T05:37:56.591Z,100441.06
2024-03-03T05:39:28.451Z,100440.19
2024-03-03T05:41:00.097Z,100442.53
2024-03-03T05:42:31.477Z,100441.66
2024-03-03T05:44:03.878Z,100447.59
2024-03-03T05:45:35.490Z,100449.09
2024-03-03T05:47:06.955Z,100443.94
2024-03-03T05:48:38.893Z,100452.16
2024-03-03T05:50:10.916Z,100452.66
2024-03-03T05:51:42.608Z,100445.56
2024-03-03T05:53:14.020Z,100454.72
2024-03-03T05:54:45.440Z,100452.63
2024-03-03T05:56:17.061Z,100459.16
2024-03-03T05:57:48.790Z,100452.13
2024-03-03T05:59:20.837Z,100455.25
2024-03-03T06:00:52.445Z,100456.53
2024-03-03T06:02:23.967Z,100447.78
2024-03-03T06:03:55.368Z,100453.53
2024-03-03T06:05:26.765Z,100457.53
2024-03-03T06:06:58.261Z,100458.88
2024-03-03T06:08:30.004Z,100452.66
2024-03-03T06:10:01.488Z,100457.25
2024-03-03T06:11:33.029Z,100460.56
2024-03-03T06:13:04.823Z,100458.28
2024-03-03T06:14:36.388Z,100453.94
2024-03-03T06:16:07.893Z,100465.63
2024-03-03T06:17:40.016Z,100458.03
2024-03-03T06:19:11.608Z,100459.56
2024-03-03T06:20:43.434Z,100457.75
2024-03-03T06:22:14.823Z,100452.50
2024-03-03T06:23:46.264Z,100457.56
2024-03-03T06:25:17.881Z,100457.75
2024-03-03T06:26:49.497Z,100458.50
2024-03-03T06:28:21.105Z,100457.25
2024-03-03T06:29:52.722Z,100467.06
2024-03-03T06:31:24.186Z,100461.59
2024-03-03T06:32:55.718Z,100468.03
2024-03-03T06:34:28.499Z,100463.72
2024-03-03T06:35:59.909Z,100464.47
2024-03-03T06:37:32.589Z,100467.66
2024-03-03T06:39:06.746Z,100472.59
2024-03-03T06:40:38.294Z,100466.31
2024-03-03T06:42:09.688Z,100458.47
2024-03-03T06:43:45.213Z,100469.13
2024-03-03T06:45:16.614Z,100472.38
2024-03-03T06:46:48.018Z,100473.91
2024-03-03T06:48:19.673Z,100467.63
2024-03-03T06:49:53.429Z,100464.72
2024-03-03T06:51:25.057Z,100468.50
2024-03-03T06:52:56.464Z,100468.81
2024-03-03T06:54:27.894Z,100469.19
2024-03-03T06:55:59.426Z,100468.63
2024-03-03T06:57:31.007Z,100476.63
2024-03-03T06:59:02.639Z,100476.88
2024-03-03T07:00:35.361Z,100476.25
2024-03-03T07:02:07.531Z,100473.09
2024-03-03T07:04:09.515Z,100478.41
2024-03-03T07:05:41.101Z,100482.78
2024-03-03T07:07:13.416Z,100479.81
2024-03-03T07:08:44.948Z,100477.44
2024-03-03T07:10:16.569Z,100490.44
2024-03-03T07:11:47.992Z,100485.72
2024-03-03T07:13:19.426Z,100485.09
2024-03-03T07:14:50.983Z,100489.63
2024-03-03T07:16:22.435Z,100489.03
2024-03-03T07:17:54.079Z,100484.25
2024-03-03T07:19:25.620Z,100485.31
2024-03-03T07:20:57.019Z,100488.97
2024-03-03T07:22:32.394Z,100489.19
2024-03-03T07:24:04.921Z,100476.66
2024-03-03T07:25:36.447Z,100486.13
2024-03-03T07:27:09.180Z,100483.13
2024-03-03T07:28:40.716Z,100486.81
2024-03-03T07:30:12.717Z,100488.69
2024-03-03T07:31:44.129Z,100493.94
2024-03-03T07:33:15.640Z,100487.44
2024-03-03T07:34:49.640Z,100491.88
2024-03-03T07:36:21.537Z,100492.84
2024-03-03T07:37:52.953Z,100484.56
2024-03-03T07:39:24.464Z,100483.88
2024-03-03T07:40:56.769Z,100490.00
2024-03-03T07:42:28.189Z,100491.88
2024-03-03T07:43:59.600Z,100491.25
2024-03-03T07:45:31.200Z,100493.94
2024-03-03T07:47:03.821Z,100496.56
2024-03-03T07:48:35.221Z,100490.78
2024-03-03T07:50:07.516Z,100493.47
2024-03-03T07:51:39.022Z,100494.56
2024-03-03T07:53:11.523Z,100493.00
2024-03-03T07:54:43.028Z,100500.84
2024-03-03T07:56:14.575Z,100504.41
2024-03-03T07:57:46.237Z,100501.31
2024-03-03T07:59:17.693Z,100502.34
2024-03-03T08:00:49.223Z,100504.09
2024-03-03T08:02:20.844Z,100502.50
2024-03-03T08:03:52.355Z,100507.06
2024-03-03T08:05:23.766Z,100508.16
2024-03-03T08:06:55.942Z,100500.88
2024-03-03T08:08:27.327Z,100504.44
2024-03-03T08:09:58.762Z,100506.38
2024-03-03T08:11:32.054Z,100509.97
2024-03-03T08:13:04.242Z,100502.56
2024-03-03T08:14:35.659Z,100500.16
2024-03-03T08:16:08.112Z,100496.81
2024-03-03T08:17:39.725Z,100501.13
2024-03-03T08:19:11.200Z,100499.34
2024-03-03T08:20:42.678Z,100494.34
2024-03-03T08:22:14.136Z,100497.97
2024-03-03T08:23:45.539Z,100492.94
2024-03-03T08:25:19.697Z,100495.69
2024-03-03T08:26:51.228Z,100494.22
2024-03-03T08:28:22.716Z,100496.16
2024-03-03T08:29:54.190Z,100494.56
2024-03-03T08:31:25.702Z,100496.41
2024-03-03T08:32:57.181Z,100498.06
2024-03-03T08:34:28.706Z,100499.88
2024-03-03T08:36:00.131Z,100494.78
2024-03-03T08:37:34.421Z,100494.13
2024-03-03T08:39:07.921Z,100497.78
2024-03-03T08:40:39.321Z,100497.13
2024-03-03T08:42:10.712Z,100493.91
2024-03-03T08:43:42.120Z,100492.38
2024-03-03T08:45:14.476Z,100504.22
2024-03-03T08:46:46.879Z,100497.59
2024-03-03T08:48:19.038Z,100500.38
2024-03-03T08:49:50.501Z,100505.47
2024-03-03T08:51:22.747Z,100506.47
2024-03-03T08:52:54.193Z,100500.00
2024-03-03T08:54:25.654Z,100500.16
2024-03-03T08:55:57.158Z,100494.09
2024-03-03T08:57:28.706Z,100495.13
2024-03-03T08:59:00.151Z,100499.66
2024-03-03T09:00:31.572Z,100497.38
2024-03-03T09:02:03.355Z,100499.41
2024-03-03T09:03:36.121Z,100493.50
2024-03-03T09:05:08.667Z,100497.81
2024-03-03T09:06:40.115Z,100502.34
2024-03-03T09:08:11.703Z,100493.91
2024-03-03T09:09:45.121Z,100494.03
2024-03-03T09:11:18.128Z,100502.09
2024-03-03T09:12:49.592Z,100493.91
2024-03-03T09:14:21.109Z,100493.97
2024-03-03T09:15:52.672Z,100493.25
2024-03-03T09:17:24.197Z,100497.59
2024-03-03T09:18:55.896Z,100491.88
2024-03-03T09:20:27.449Z,100499.72
2024-03-03T09:21:58.901Z,100491.53
2024-03-03T09:23:30.322Z,100495.75
2024-03-03T09:25:01.753Z,100487.44
2024-03-03T09:26:33.335Z,100485.97
2024-03-03T09:28:05.038Z,100491.19
2024-03-03T09:29:37.056Z,100488.63
2024-03-03T09:31:08.733Z,100492.38
2024-03-03T09:32:40.269Z,100488.63
2024-03-03T09:34:11.813Z,100496.63
2024-03-03T09:35:43.291Z,100493.53
2024-03-03T09:37:14.893Z,100494.59
2024-03-03T09:38:46.750Z,100499.81
2024-03-03T09:40:18.599Z,100505.97
2024-03-03T09:41:56.707Z,100502.88
2024-03-03T09:43:29.726Z,100495.09
2024-03-03T09:45:07.889Z,100500.59
2024-03-03T09:46:41.284Z,100500.06
2024-03-03T09:48:14.046Z,100501.19
2024-03-03T09:49:45.990Z,100504.81
2024-03-03T09:51:18.911Z,100510.97
2024-03-03T09:52:53.791Z,100499.25
2024-03-03T09:54:26.126Z,100501.88
2024-03-03T09:55:58.372Z,100505.19
2024-03-03T09:57:33.919Z,100501.63
2024-03-03T09:59:06.432Z,100501.94
2024-03-03T10:00:37.977Z,100502.16
2024-03-03T10:02:16.513Z,100499.78
2024-03-03T10:03:49.166Z,100496.59
2024-03-03T10:05:22.813Z,100502.00
2024-03-03T10:06:56.729Z,100499.72
2024-03-03T10:08:28.569Z,100503.91
2024-03-03T10:10:12.593Z,100501.03
2024-03-03T10:11:45.114Z,100501.03
2024-03-03T10:13:18.841Z,100506.47
2024-03-03T10:14:54.440Z,100503.44
2024-03-03T10:16:29.967Z,100502.69
2024-03-03T10:18:04.240Z,100506.94
2024-03-03T10:19:35.894Z,100504.72
2024-03-03T10:21:09.053Z,100513.34
2024-03-03T10:22:42.208Z,100508.56
2024-03-03T10:24:27.744Z,100509.84
2024-03-03T10:25:59.354Z,100502.16
2024-03-03T10:27:30.751Z,100500.66
2024-03-03T10:29:05.861Z,100496.91
2024-03-03T10:30:37.379Z,100496.91
2024-03-03T10:32:10.769Z,100496.34
2024-03-03T10:33:55.934Z,100493.28
2024-03-03T10:35:27.794Z,100491.75
2024-03-03T10:37:03.797Z,100485.97
2024-03-03T10:38:35.390Z,100484.00
2024-03-03T10:40:12.314Z,100488.22
2024-03-03T10:41:43.945Z,100489.22
2024-03-03T10:43:15.597Z,100484.88
2024-03-03T10:44:47.200Z,100480.59
2024-03-03T10:46:20.435Z,100482.41
2024-03-03T10:47:52.362Z,100479.69
2024-03-03T10:49:26.517Z,100482.38
2024-03-03T10:50:58.755Z,100481.59
2024-03-03T10:52:31.261Z,100479.75
2024-03-03T10:54:03.126Z,100484.97
2024-03-03T10:55:36.330Z,100476.38
2024-03-03T10:57:09.899Z,100476.09
2024-03-03T10:58:43.317Z,100481.38
2024-03-03T11:00:17.306Z,100483.78
2024-03-03T11:01:50.949Z,100488.91
2024-03-03T11:03:24.788Z,100480.34
2024-03-03T11:04:56.767Z,100485.63
2024-03-03T11:06:28.442Z,100477.25
2024-03-03T11:08:01.146Z,100472.81
2024-03-03T11:09:34.528Z,100475.16
2024-03-03T11:11:09.439Z,100467.81
2024-03-03T11:12:44.133Z,100462.81
2024-03-03T11:14:17.771Z,100474.88
2024-03-03T11:15:54.503Z,100467.13
2024-03-03T11:17:31.617Z,100460.19
2024-03-03T11:19:05.971Z,100462.69
2024-03-03T11:20:41.448Z,100470.25
2024-03-03T11:22:20.161Z,100464.34
2024-03-03T11:24:02.350Z,100462.00
2024-03-03T11:25:39.936Z,100462.03
2024-03-03T11:27:23.269Z,100461.78
2024-03-03T11:28:58.936Z,100461.66
2024-03-03T11:30:30.948Z,100464.28
2024-03-03T11:32:03.911Z,100463.63
2024-03-03T11:33:37.138Z,100460.47
2024-03-03T11:35:10.477Z,100466.53
2024-03-03T11:36:43.286Z,100466.66
2024-03-03T11:38:15.504Z,100469.28
2024-03-03T11:40:05.463Z,100462.19
2024-03-03T11:41:40.471Z,100456.88
2024-03-03T11:43:12.087Z,100457.97
2024-03-03T11:44:51.899Z,100461.56
2024-03-03T11:46:45.542Z,100458.28
2024-03-03T11:48:17.116Z,100454.81
2024-03-03T11:49:48.729Z,100455.88
2024-03-03T11:51:27.638Z,100458.34
2024-03-03T11:52:59.065Z,100452.91
2024-03-03T11:54:32.852Z,100449.19
2024-03-03T11:56:18.493Z,100450.09
2024-03-03T11:57:55.917Z,100445.13
2024-03-03T11:59:34.303Z,100443.25
2024-03-03T12:01:11.282Z,100442.34
2024-03-03T12:02:43.109Z,100443.38
2024-03-03T12:04:15.865Z,100439.34
2024-03-03T12:05:48.366Z,100441.34
2024-03-03T12:07:21.564Z,100446.72
2024-03-03T12:08:57.937Z,100441.50
2024-03-03T12:10:32.637Z,100437.13
2024-03-03T12:12:06.182Z,100435.84
2024-03-03T12:13:37.934Z,100442.03
2024-03-03T12:15:09.896Z,100430.47
2024-03-03T12:16:41.308Z,100435.69
2024-03-03T12:18:13.440Z,100437.53
2024-03-03T12:19:46.101Z,100436.75
2024-03-03T12:21:20.364Z,100439.31
2024-03-03T12:22:52.241Z,100437.69
2024-03-03T12:24:23.769Z,100437.78
2024-03-03T12:25:56.304Z,100432.25
2024-03-03T12:27:28.085Z,100429.81
2024-03-03T12:29:00.969Z,100424.78
2024-03-03T12:30:32.312Z,100431.47
2024-03-03T12:32:05.961Z,100423.81
2024-03-03T12:33:40.519Z,100421.25
2024-03-03T12:35:12.062Z,100422.75
2024-03-03T12:36:43.806Z,100413.19
2024-03-03T12:38:15.413Z,100428.72
2024-03-03T12:39:47.045Z,100417.91
2024-03-03T12:41:19.214Z,100427.31
2024-03-03T12:42:51.779Z,100423.06
2024-03-03T12:44:25.571Z,100420.63
2024-03-03T12:45:57.073Z,100420.09
2024-03-03T12:47:29.810Z,100415.00
2024-03-03T12:49:01.437Z,100419.47
2024-03-03T12:50:32.851Z,100422.34
2024-03-03T12:52:04.521Z,100415.59
2024-03-03T12:53:40.984Z,100411.47
2024-03-03T12:55:14.913Z,100424.31
2024-03-03T12:56:48.070Z,100422.88
2024-03-03T12:58:19.668Z,100412.22
2024-03-03T13:01:30.349Z,100410.50
2024-03-03T13:03:01.860Z,100404.66
2024-03-03T13:04:34.874Z,100411.75
2024-03-03T13:06:06.537Z,100403.56
2024-03-03T13:07:37.979Z,100404.03
2024-03-03T13:09:13.719Z,100397.72
2024-03-03T13:10:45.891Z,100396.00
2024-03-03T13:12:20.357Z,100396.84
2024-03-03T13:13:53.105Z,100388.53
2024-03-03T13:15:33.002Z,100386.25
2024-03-03T13:17:10.383Z,100390.13
2024-03-03T13:18:41.908Z,100393.00
2024-03-03T13:20:15.949Z,100389.81
2024-03-03T13:22:02.192Z,100391.44
2024-03-03T13:23:33.692Z,100395.63
2024-03-03T13:25:05.905Z,100386.94
2024-03-03T13:26:37.351Z,100392.03
2024-03-03T13:28:13.026Z,100385.50
2024-03-03T13:29:44.500Z,100395.53
2024-03-03T13:31:15.977Z,100399.50
2024-03-03T13:32:47.501Z,100396.34
2024-03-03T13:34:19.078Z,100394.97
2024-03-03T13:35:50.521Z,100395.44
2024-03-03T13:37:21.971Z,100390.94
2024-03-03T13:38:53.535Z,100394.56
2024-03-03T13:40:25.596Z,100396.22
2024-03-03T13:41:56.997Z,100389.44
2024-03-03T13:43:29.169Z,100387.00
2024-03-03T13:45:02.475Z,100391.56
2024-03-03T13:46:34.479Z,100394.78
2024-03-03T13:48:12.488Z,100392.50
2024-03-03T13:49:44.004Z,100389.88
2024-03-03T13:51:15.854Z,100391.59
2024-03-03T13:52:47.421Z,100386.81
2024-03-03T13:54:18.953Z,100390.06
2024-03-03T13:55:51.688Z,100399.88
2024-03-03T13:57:25.952Z,100404.19
2024-03-03T13:58:57.510Z,100404.06
2024-03-03T14:00:32.016Z,100407.22
2024-03-03T14:02:03.828Z,100406.41
2024-03-03T14:03:35.641Z,100411.63
2024-03-03T14:05:07.430Z,100402.22
2024-03-03T14:06:39.291Z,100404.13
2024-03-03T14:08:13.818Z,100409.00
2024-03-03T14:09:45.766Z,100406.69
2024-03-03T14:11:17.277Z,100411.19
2024-03-03T14:12:48.843Z,100402.69
2024-03-03T14:14:20.401Z,100401.75
2024-03-03T14:15:51.825Z,100402.38
2024-03-03T14:17:23.546Z,100407.44
2024-03-03T14:19:00.308Z,100402.06
2024-03-03T14:20:33.581Z,100417.47
2024-03-03T14:22:05.799Z,100414.50
2024-03-03T14:23:37.202Z,100413.13
2024-03-03T14:25:11.309Z,100419.94
2024-03-03T14:26:42.852Z,100424.91
2024-03-03T14:28:14.504Z,100422.97
2024-03-03T14:29:46.273Z,100424.50
2024-03-03T14:31:17.762Z,100428.53
2024-03-03T14:32:49.989Z,100428.09
2024-03-03T14:34:21.595Z,100421.53
2024-03-03T14:35:53.373Z,100424.13
2024-03-03T14:37:24.997Z,100424.09
2024-03-03T14:38:56.472Z,100429.84
2024-03-03T14:40:28.201Z,100437.41
2024-03-03T14:42:00.247Z,100428.66
2024-03-03T14:43:31.893Z,100430.47
2024-03-03T14:45:04.367Z,100433.09
2024-03-03T14:46:36.333Z,100430.38
2024-03-03T14:48:08.264Z,100434.28
2024-03-03T14:49:39.791Z,100435.56
2024-03-03T14:51:11.180Z,100436.91
2024-03-03T14:52:42.570Z,100435.78
2024-03-03T14:54:14.403Z,100437.09
2024-03-03T14:55:46.418Z,100441.44
2024-03-03T14:57:17.930Z,100436.41
2024-03-03T14:58:49.588Z,100438.13
2024-03-03T15:00:24.227Z,100439.25
2024-03-03T15:01:55.820Z,100437.44
2024-03-03T15:03:29.172Z,100432.06
2024-03-03T15:05:00.689Z,100442.19
2024-03-03T15:06:32.159Z,100426.59
2024-03-03T15:08:04.116Z,100436.66
2024-03-03T15:09:35.661Z,100430.66
2024-03-03T15:11:07.129Z,100434.28
2024-03-03T15:12:40.180Z,100439.41
2024-03-03T15:14:11.958Z,100431.75
2024-03-03T15:15:43.701Z,100428.19
2024-03-03T15:17:21.834Z,100428.13
2024-03-03T15:18:54.244Z,100428.84
2024-03-03T15:20:25.650Z,100430.41
2024-03-03T15:21:57.275Z,100433.78
2024-03-03T15:23:28.736Z,100430.22
2024-03-03T15:25:00.157Z,100430.22
2024-03-03T15:26:31.662Z,100431.19
2024-03-03T15:28:03.812Z,100433.00
2024-03-03T15:29:35.349Z,100426.16
2024-03-03T15:31:06.832Z,100440.50
2024-03-03T15:32:38.377Z,100435.03
2024-03-03T15:34:09.824Z,100439.97
2024-03-03T15:35:41.325Z,100439.59
2024-03-03T15:37:12.908Z,100439.59
2024-03-03T15:38:45.500Z,100440.25
2024-03-03T15:40:17.009Z,100447.91
2024-03-03T15:41:48.536Z,100447.69
2024-03-03T15:43:19.924Z,100445.75
2024-03-03T15:44:51.382Z,100447.19
2024-03-03T15:46:22.940Z,100449.41
2024-03-03T15:47:54.463Z,100448.38
2024-03-03T15:49:26.127Z,100453.34
2024-03-03T15:50:57.571Z,100450.69
2024-03-03T15:52:29.190Z,100453.88
2024-03-03T15:54:00.604Z,100457.22
2024-03-03T15:55:32.216Z,100453.56
2024-03-03T15:57:05.506Z,100445.66
2024-03-03T15:58:37.253Z,100445.44
2024-03-03T16:00:12.801Z,100448.69
2024-03-03T16:01:44.399Z,100444.09
2024-03-03T16:03:15.833Z,100448.38
2024-03-03T16:04:47.481Z,100450.63
2024-03-03T16:06:19.714Z,100457.97
2024-03-03T16:07:51.365Z,100456.78
2024-03-03T16:09:22.763Z,100461.50
2024-03-03T16:10:54.868Z,100460.19
2024-03-03T16:12:26.577Z,100461.56
2024-03-03T16:13:57.973Z,100466.31
2024-03-03T16:15:29.353Z,100466.06
2024-03-03T16:17:00.981Z,100464.06
2024-03-03T16:18:32.749Z,100463.06
2024-03-03T16:20:05.027Z,100466.28
2024-03-03T16:21:36.493Z,100463.31
2024-03-03T16:23:08.026Z,100457.97
2024-03-03T16:24:39.834Z,100466.31
2024-03-03T16:26:12.454Z,100473.66
2024-03-03T16:27:43.960Z,100473.22
2024-03-03T16:29:17.817Z,100473.75
2024-03-03T16:30:49.290Z,100476.84
2024-03-03T16:32:20.926Z,100478.13
2024-03-03T16:33:52.376Z,100474.38
2024-03-03T16:35:24.688Z,100470.41
2024-03-03T16:36:56.481Z,100470.09
2024-03-03T16:38:29.632Z,100480.09
2024-03-03T16:40:01.056Z,100472.84
2024-03-03T16:41:32.534Z,100477.38
2024-03-03T16:43:04.309Z,100480.53
2024-03-03T16:44:35.819Z,100483.78
2024-03-03T16:46:07.334Z,100478.53
2024-03-03T16:47:38.957Z,100485.94
2024-03-03T16:49:10.417Z,100485.75
2024-03-03T16:50:42.387Z,100482.75
2024-03-03T16:52:13.851Z,100495.34
2024-03-03T16:53:45.460Z,100492.47
2024-03-03T16:55:18.620Z,100488.69
2024-03-03T16:56:50.746Z,100492.38
2024-03-03T16:58:22.188Z,100494.72
2024-03-03T16:59:53.832Z,100495.84
2024-03-03T17:01:25.590Z,100497.09
2024-03-03T17:02:57.080Z,100502.91
2024-03-03T17:04:29.036Z,100498.53
2024-03-03T17:06:01.618Z,100504.19
2024-03-03T17:07:33.283Z,100500.78
2024-03-03T17:09:04.805Z,100507.19
2024-03-03T17:10:37.148Z,100500.91
2024-03-03T17:12:08.656Z,100510.06
2024-03-03T17:13:40.215Z,100514.13
2024-03-03T17:15:12.315Z,100511.31
2024-03-03T17:16:44.634Z,100512.06
2024-03-03T17:18:16.209Z,100514.38
2024-03-03T17:19:47.753Z,100510.72
2024-03-03T17:21:19.148Z,100509.84
2024-03-03T17:22:50.691Z,100506.34
2024-03-03T17:24:22.724Z,100511.13
2024-03-03T17:25:54.363Z,100514.44
2024-03-03T17:27:25.748Z,100525.19
2024-03-03T17:28:57.188Z,100518.34
2024-03-03T17:30:28.756Z,100517.94
2024-03-03T17:32:00.323Z,100517.81
2024-03-03T17:33:31.735Z,100513.19
2024-03-03T17:35:03.299Z,100519.03
2024-03-03T17:36:34.926Z,100517.75